createdAt,value
2022-10-03T00:02:05.032Z,9.47
2022-10-03T00:07:19.807Z,9.49
2022-10-03T00:12:42.318Z,9.49
2022-10-03T00:17:57.461Z,9.46
2022-10-03T00:23:08.034Z,9.38
2022-10-03T00:28:25.006Z,9.31
2022-10-03T00:33:40.648Z,9.39
2022-10-03T00:39:14.828Z,9.45
2022-10-03T00:44:47.509Z,9.44
2022-10-03T00:50:18.322Z,9.45
2022-10-03T00:55:31.262Z,9.40
2022-10-03T01:00:35.887Z,9.43
2022-10-03T01:05:55.954Z,9.35
2022-10-03T01:11:09.757Z,9.24
2022-10-03T01:16:20.978Z,9.17
2022-10-03T01:21:38.300Z,9.14
2022-10-03T01:26:55.918Z,9.10
2022-10-03T01:32:05.151Z,9.08
2022-10-03T01:37:11.597Z,9.05
2022-10-03T01:42:20.808Z,8.98
2022-10-03T01:47:34.324Z,8.91
2022-10-03T01:52:42.282Z,8.64
2022-10-03T01:57:50.549Z,8.74
2022-10-03T02:03:06.912Z,8.76
2022-10-03T02:08:23.069Z,8.73
2022-10-03T02:13:32.275Z,8.71
2022-10-03T02:18:46.150Z,8.76
2022-10-03T02:23:50.737Z,8.73
2022-10-03T02:29:18.449Z,8.68
2022-10-03T02:34:43.126Z,8.60
2022-10-03T02:40:36.406Z,8.60
2022-10-03T02:45:58.086Z,8.40
2022-10-03T02:51:44.982Z,8.68
2022-10-03T02:57:32.077Z,8.72
2022-10-03T03:03:25.153Z,8.66
2022-10-03T03:09:03.298Z,8.59
2022-10-03T03:14:46.185Z,8.55
2022-10-03T03:20:04.049Z,8.43
2022-10-03T03:25:23.198Z,8.37
2022-10-03T03:30:33.412Z,8.38
2022-10-03T03:35:54.201Z,8.37
2022-10-03T03:41:13.105Z,8.40
2022-10-03T03:46:34.376Z,8.39
2022-10-03T03:51:44.062Z,8.34
2022-10-03T03:57:05.588Z,8.25
2022-10-03T04:02:27.010Z,8.19
2022-10-03T04:07:49.097Z,8.16
2022-10-03T04:13:18.859Z,8.11
2022-10-03T04:18:51.605Z,8.15
2022-10-03T04:24:08.251Z,8.10
2022-10-03T04:29:43.419Z,8.15
2022-10-03T04:34:58.125Z,8.18
2022-10-03T04:40:19.080Z,8.12
2022-10-03T04:45:42.185Z,7.81
2022-10-03T04:50:57.309Z,7.91
2022-10-03T04:56:14.915Z,7.85
2022-10-03T05:01:26.305Z,7.75
2022-10-03T05:06:39.017Z,7.89
2022-10-03T05:11:57.099Z,7.88
2022-10-03T05:17:08.446Z,7.79
2022-10-03T05:22:23.563Z,7.82
2022-10-03T05:27:36.157Z,7.99
2022-10-03T05:32:46.381Z,8.11
2022-10-03T05:38:13.495Z,8.12
2022-10-03T05:43:29.956Z,8.18
2022-10-03T05:48:45.367Z,8.29
2022-10-03T05:54:33.432Z,8.08
2022-10-03T06:00:08.649Z,8.08
2022-10-03T06:05:30.614Z,8.37
2022-10-03T06:10:56.471Z,8.28
2022-10-03T06:16:06.513Z,8.49
2022-10-03T06:21:43.425Z,8.82
2022-10-03T06:27:17.002Z,8.87
2022-10-03T06:32:51.180Z,8.66
2022-10-03T06:38:34.809Z,8.65
2022-10-03T06:44:07.709Z,9.01
2022-10-03T06:49:53.428Z,9.16
2022-10-03T06:55:35.673Z,9.48
2022-10-03T07:00:54.545Z,9.80
2022-10-03T07:06:12.889Z,9.83
2022-10-03T07:11:34.602Z,9.67
2022-10-03T07:17:01.360Z,10.04
2022-10-03T07:22:41.638Z,10.25
2022-10-03T07:28:18.038Z,9.88
2022-10-03T07:33:53.430Z,10.34
2022-10-03T07:39:52.416Z,10.61
2022-10-03T07:45:24.369Z,10.93
2022-10-03T07:50:50.378Z,10.87
2022-10-03T07:56:15.129Z,10.86
2022-10-03T08:01:45.098Z,11.19
2022-10-03T08:06:58.125Z,11.48
2022-10-03T08:12:40.401Z,11.13
2022-10-03T08:18:18.874Z,11.88
2022-10-03T08:23:45.892Z,11.93
2022-10-03T08:29:14.387Z,11.54
2022-10-03T08:35:02.163Z,12.40
2022-10-03T08:40:44.757Z,11.97
2022-10-03T08:46:00.384Z,12.56
2022-10-03T08:51:40.606Z,12.64
2022-10-03T08:57:02.466Z,12.60
2022-10-03T09:02:57.424Z,12.93
2022-10-03T09:08:48.124Z,13.79
2022-10-03T09:14:34.226Z,14.02
2022-10-03T09:20:09.192Z,14.59
2022-10-03T09:25:34.989Z,15.32
2022-10-03T09:30:53.827Z,14.22
2022-10-03T09:36:19.008Z,15.33
2022-10-03T09:42:00.961Z,15.24
2022-10-03T09:54:34.150Z,14.94
2022-10-03T10:00:12.214Z,14.99
2022-10-03T10:05:41.150Z,14.31
2022-10-03T10:10:55.142Z,15.18
2022-10-03T10:16:33.100Z,14.71
2022-10-03T10:21:52.876Z,15.04
2022-10-03T10:27:21.289Z,15.34
2022-10-03T10:33:01.472Z,15.07
2022-10-03T10:38:28.167Z,15.67
2022-10-03T10:44:24.938Z,15.74
2022-10-03T10:50:05.180Z,16.06
2022-10-03T10:55:45.404Z,17.72
2022-10-03T11:01:22.820Z,18.93
2022-10-03T11:07:01.069Z,17.62
2022-10-03T11:12:56.382Z,17.80
2022-10-03T11:18:47.745Z,16.19
2022-10-03T11:24:32.502Z,15.15
2022-10-03T11:35:50.269Z,15.79
2022-10-03T11:41:04.511Z,14.57
2022-10-03T11:46:22.618Z,15.30
2022-10-03T11:51:39.020Z,14.82
2022-10-03T11:56:45.947Z,14.80
2022-10-03T12:02:07.729Z,14.65
2022-10-03T12:07:37.549Z,14.61
2022-10-03T12:12:47.729Z,14.79
2022-10-03T12:18:02.562Z,14.78
2022-10-03T12:23:19.091Z,15.07
2022-10-03T12:28:27.930Z,15.07
2022-10-03T12:33:52.713Z,15.84
2022-10-03T12:39:15.321Z,15.18
2022-10-03T12:44:35.625Z,14.85
2022-10-03T12:49:52.522Z,15.45
2022-10-03T12:55:07.089Z,16.53
2022-10-03T13:00:20.833Z,15.79
2022-10-03T13:11:16.642Z,18.69
2022-10-03T13:16:24.977Z,20.82
2022-10-03T13:21:51.623Z,20.56
2022-10-03T13:27:03.813Z,19.54
2022-10-03T13:32:16.281Z,20.30
2022-10-03T13:37:25.963Z,19.49
2022-10-03T13:42:39.080Z,19.06
2022-10-03T13:47:49.329Z,18.29
2022-10-03T13:53:01.048Z,18.26
2022-10-03T13:58:25.067Z,17.39
2022-10-03T14:09:35.559Z,17.54
2022-10-03T14:21:46.871Z,17.99
2022-10-03T14:26:56.061Z,17.14
2022-10-03T14:32:28.375Z,17.04
2022-10-03T14:37:41.944Z,16.80
2022-10-03T14:42:57.488Z,16.34
2022-10-03T14:48:07.517Z,16.17
2022-10-03T14:53:17.979Z,15.81
2022-10-03T14:58:23.937Z,15.78
2022-10-03T15:03:33.583Z,15.72
2022-10-03T15:08:42.939Z,15.61
2022-10-03T15:13:48.949Z,15.77
2022-10-03T15:18:56.262Z,15.42
2022-10-03T15:24:03.784Z,15.23
2022-10-03T15:29:08.397Z,14.93
2022-10-03T15:34:18.427Z,15.08
2022-10-03T15:39:27.859Z,14.97
2022-10-03T15:44:39.082Z,14.79
2022-10-03T15:49:50.181Z,14.58
2022-10-03T15:55:11.174Z,14.37
2022-10-03T16:00:24.564Z,14.53
2022-10-03T16:05:28.498Z,14.61
2022-10-03T16:10:39.661Z,14.25
2022-10-03T16:16:10.734Z,14.28
2022-10-03T16:21:17.656Z,14.36
2022-10-03T16:26:26.871Z,14.27
2022-10-03T16:31:37.425Z,14.08
2022-10-03T16:36:44.689Z,13.94
2022-10-03T16:41:54.196Z,13.81
2022-10-03T16:47:02.645Z,13.72
2022-10-03T16:52:11.488Z,13.59
2022-10-03T16:57:20.475Z,13.39
2022-10-03T17:02:28.231Z,13.26
2022-10-03T17:07:38.189Z,13.17
2022-10-03T17:12:46.414Z,13.10
2022-10-03T17:17:55.266Z,12.97
2022-10-03T17:23:02.419Z,12.80
2022-10-03T17:28:10.814Z,12.73
2022-10-03T17:33:22.154Z,12.74
2022-10-03T17:44:17.215Z,12.58
2022-10-03T17:49:26.153Z,12.50
2022-10-03T17:54:34.482Z,12.51
2022-10-03T17:59:46.821Z,12.44
2022-10-03T18:04:58.553Z,12.37
2022-10-03T18:10:01.884Z,12.21
2022-10-03T18:15:41.138Z,12.17
2022-10-03T18:20:49.514Z,12.19
2022-10-03T18:26:19.115Z,12.22
2022-10-03T18:31:26.433Z,12.22
2022-10-03T18:36:33.678Z,12.13
2022-10-03T18:41:36.744Z,12.09
2022-10-03T18:46:43.037Z,11.98
2022-10-03T18:51:50.599Z,11.90
2022-10-03T18:57:08.313Z,11.82
2022-10-03T19:02:21.151Z,11.84
2022-10-03T19:07:25.002Z,11.78
2022-10-03T19:12:34.419Z,11.61
2022-10-03T19:17:50.043Z,11.63
2022-10-03T19:23:01.670Z,11.66
2022-10-03T19:28:14.644Z,11.60
2022-10-03T19:33:22.936Z,11.51
2022-10-03T19:38:28.608Z,11.41
2022-10-03T19:43:37.648Z,11.53
2022-10-03T19:48:49.462Z,11.50
2022-10-03T19:53:54.092Z,11.49
2022-10-03T19:59:05.867Z,11.39
2022-10-03T20:04:10.340Z,11.37
2022-10-03T20:09:23.612Z,11.11
2022-10-03T20:14:32.068Z,11.33
2022-10-03T20:19:54.300Z,11.33
2022-10-03T20:24:57.225Z,11.21
2022-10-03T20:30:08.414Z,11.11
2022-10-03T20:35:15.984Z,11.15
2022-10-03T20:40:36.140Z,11.19
2022-10-03T20:45:40.932Z,11.07
2022-10-03T20:50:48.459Z,10.94
2022-10-03T20:55:53.679Z,10.89
2022-10-03T21:01:03.049Z,11.04
2022-10-03T21:06:18.713Z,10.98
2022-10-03T21:11:25.251Z,10.92
2022-10-03T21:16:31.428Z,10.77
2022-10-03T21:21:42.401Z,10.67
2022-10-03T21:26:49.066Z,10.73
2022-10-03T21:31:58.740Z,10.71
2022-10-03T21:37:13.375Z,10.48
2022-10-03T21:42:24.463Z,10.33
2022-10-03T21:47:37.204Z,10.34
2022-10-03T21:53:00.303Z,10.31
2022-10-03T21:58:16.664Z,10.26
2022-10-03T22:03:24.200Z,10.15
2022-10-03T22:08:31.921Z,10.08
2022-10-03T22:13:38.353Z,10.07
2022-10-03T22:19:05.053Z,10.07
2022-10-03T22:24:17.478Z,9.91
2022-10-03T22:29:29.326Z,9.79
2022-10-03T22:34:44.605Z,9.67
2022-10-03T22:39:50.953Z,9.63
2022-10-03T22:44:54.953Z,9.64
2022-10-03T22:50:01.515Z,9.62
2022-10-03T22:55:09.395Z,9.65
2022-10-03T23:00:15.448Z,9.65
2022-10-03T23:05:30.572Z,9.61
2022-10-03T23:10:43.041Z,9.56
2022-10-03T23:15:50.283Z,9.51
2022-10-03T23:21:05.888Z,9.40
2022-10-03T23:26:35.512Z,9.26
2022-10-03T23:31:57.612Z,9.25
2022-10-03T23:37:02.905Z,9.26
2022-10-03T23:42:10.712Z,9.19
2022-10-03T23:47:16.013Z,9.31
2022-10-03T23:52:24.536Z,9.26
2022-10-03T23:57:40.843Z,9.30
